sensor_id;sensor_type;location;lat;lon;timestamp;P1;durP1;ratioP1;P2;durP2;ratioP2
80711;SDS011;70078;51.596;5.678;2023-06-10T00:00:37;8.48;;;6.90;;
80711;SDS011;70078;51.596;5.678;2023-06-10T00:03:02;8.73;;;7.07;;
80711;SDS011;70078;51.596;5.678;2023-06-10T00:05:27;9.27;;;7.25;;
80711;SDS011;70078;51.596;5.678;2023-06-10T00:07:55;7.95;;;7.13;;
80711;SDS011;70078;51.596;5.678;2023-06-10T00:10:21;8.82;;;6.65;;
80711;SDS011;70078;51.596;5.678;2023-06-10T00:12:47;8.35;;;6.93;;
80711;SDS011;70078;51.596;5.678;2023-06-10T00:15:12;9.52;;;8.63;;
80711;SDS011;70078;51.596;5.678;2023-06-10T00:17:37;9.55;;;8.27;;
80711;SDS011;70078;51.596;5.678;2023-06-10T00:20:05;9.95;;;7.32;;
80711;SDS011;70078;51.596;5.678;2023-06-10T00:22:35;9.20;;;8.05;;
80711;SDS011;70078;51.596;5.678;2023-06-10T00:25:02;9.20;;;7.30;;
80711;SDS011;70078;51.596;5.678;2023-06-10T00:27:28;9.43;;;7.63;;
80711;SDS011;70078;51.596;5.678;2023-06-10T00:29:59;8.18;;;7.05;;
80711;SDS011;70078;51.596;5.678;2023-06-10T00:32:26;11.00;;;7.38;;
80711;SDS011;70078;51.596;5.678;2023-06-10T00:34:51;9.63;;;8.32;;
80711;SDS011;70078;51.596;5.678;2023-06-10T00:37:16;9.63;;;7.78;;
80711;SDS011;70078;51.596;5.678;2023-06-10T00:39:41;8.50;;;7.35;;
80711;SDS011;70078;51.596;5.678;2023-06-10T00:42:19;8.82;;;7.55;;
80711;SDS011;70078;51.596;5.678;2023-06-10T00:44:44;10.30;;;8.18;;
80711;SDS011;70078;51.596;5.678;2023-06-10T00:47:10;10.07;;;7.78;;
80711;SDS011;70078;51.596;5.678;2023-06-10T00:49:35;8.60;;;7.70;;
80711;SDS011;70078;51.596;5.678;2023-06-10T00:52:04;9.93;;;7.15;;
80711;SDS011;70078;51.596;5.678;2023-06-10T00:54:31;11.60;;;8.25;;
80711;SDS011;70078;51.596;5.678;2023-06-10T00:56:59;10.07;;;8.13;;
80711;SDS011;70078;51.596;5.678;2023-06-10T00:59:26;8.63;;;7.28;;
80711;SDS011;70078;51.596;5.678;2023-06-10T01:01:53;9.40;;;8.15;;
80711;SDS011;70078;51.596;5.678;2023-06-10T01:04:18;8.35;;;7.22;;
80711;SDS011;70078;51.596;5.678;2023-06-10T01:07:00;9.27;;;8.27;;
80711;SDS011;70078;51.596;5.678;2023-06-10T01:09:41;9.98;;;7.65;;
80711;SDS011;70078;51.596;5.678;2023-06-10T01:12:12;10.25;;;7.88;;
80711;SDS011;70078;51.596;5.678;2023-06-10T01:14:48;11.40;;;8.27;;
80711;SDS011;70078;51.596;5.678;2023-06-10T01:17:16;9.18;;;7.90;;
80711;SDS011;70078;51.596;5.678;2023-06-10T01:19:43;10.82;;;8.65;;
80711;SDS011;70078;51.596;5.678;2023-06-10T01:22:09;10.15;;;9.10;;
80711;SDS011;70078;51.596;5.678;2023-06-10T01:24:35;9.73;;;8.60;;
80711;SDS011;70078;51.596;5.678;2023-06-10T01:27:02;11.75;;;9.23;;
80711;SDS011;70078;51.596;5.678;2023-06-10T01:29:36;14.30;;;9.30;;
80711;SDS011;70078;51.596;5.678;2023-06-10T01:32:06;10.70;;;9.60;;
80711;SDS011;70078;51.596;5.678;2023-06-10T01:34:36;14.85;;;10.35;;
80711;SDS011;70078;51.596;5.678;2023-06-10T01:37:04;12.70;;;9.77;;
80711;SDS011;70078;51.596;5.678;2023-06-10T01:39:30;13.93;;;10.13;;
80711;SDS011;70078;51.596;5.678;2023-06-10T01:41:57;11.18;;;9.50;;
80711;SDS011;70078;51.596;5.678;2023-06-10T01:44:22;12.10;;;9.20;;
80711;SDS011;70078;51.596;5.678;2023-06-10T01:46:48;14.13;;;9.40;;
80711;SDS011;70078;51.596;5.678;2023-06-10T01:49:13;11.43;;;9.23;;
80711;SDS011;70078;51.596;5.678;2023-06-10T01:51:39;10.95;;;9.38;;
80711;SDS011;70078;51.596;5.678;2023-06-10T01:54:04;11.07;;;9.98;;
80711;SDS011;70078;51.596;5.678;2023-06-10T01:56:30;11.35;;;8.57;;
80711;SDS011;70078;51.596;5.678;2023-06-10T01:58:55;11.30;;;8.88;;
80711;SDS011;70078;51.596;5.678;2023-06-10T02:01:24;10.60;;;9.50;;
80711;SDS011;70078;51.596;5.678;2023-06-10T02:03:53;11.57;;;9.48;;
80711;SDS011;70078;51.596;5.678;2023-06-10T02:06:18;11.07;;;9.73;;
80711;SDS011;70078;51.596;5.678;2023-06-10T02:08:44;10.85;;;9.38;;
80711;SDS011;70078;51.596;5.678;2023-06-10T02:11:09;12.63;;;10.30;;
80711;SDS011;70078;51.596;5.678;2023-06-10T02:13:35;10.23;;;8.80;;
80711;SDS011;70078;51.596;5.678;2023-06-10T02:16:00;11.80;;;9.80;;
80711;SDS011;70078;51.596;5.678;2023-06-10T02:18:26;11.57;;;9.73;;
80711;SDS011;70078;51.596;5.678;2023-06-10T02:20:53;11.35;;;9.63;;
80711;SDS011;70078;51.596;5.678;2023-06-10T02:23:18;11.30;;;9.93;;
80711;SDS011;70078;51.596;5.678;2023-06-10T02:25:44;13.27;;;9.30;;
80711;SDS011;70078;51.596;5.678;2023-06-10T02:28:09;10.95;;;9.85;;
80711;SDS011;70078;51.596;5.678;2023-06-10T02:30:35;15.05;;;11.05;;
80711;SDS011;70078;51.596;5.678;2023-06-10T02:33:00;10.98;;;9.88;;
80711;SDS011;70078;51.596;5.678;2023-06-10T02:35:26;11.40;;;10.15;;
80711;SDS011;70078;51.596;5.678;2023-06-10T02:37:51;11.60;;;9.40;;
80711;SDS011;70078;51.596;5.678;2023-06-10T02:40:16;12.10;;;10.07;;
80711;SDS011;70078;51.596;5.678;2023-06-10T02:42:42;11.93;;;9.77;;
80711;SDS011;70078;51.596;5.678;2023-06-10T02:45:07;11.73;;;9.95;;
80711;SDS011;70078;51.596;5.678;2023-06-10T02:47:33;10.63;;;9.52;;
80711;SDS011;70078;51.596;5.678;2023-06-10T02:49:58;13.10;;;11.90;;
80711;SDS011;70078;51.596;5.678;2023-06-10T02:52:23;13.38;;;10.20;;
80711;SDS011;70078;51.596;5.678;2023-06-10T02:54:50;14.15;;;11.00;;
80711;SDS011;70078;51.596;5.678;2023-06-10T02:57:15;11.95;;;9.60;;
80711;SDS011;70078;51.596;5.678;2023-06-10T02:59:40;12.20;;;10.38;;
80711;SDS011;70078;51.596;5.678;2023-06-10T03:02:06;11.48;;;9.52;;
80711;SDS011;70078;51.596;5.678;2023-06-10T03:04:31;14.52;;;12.98;;
80711;SDS011;70078;51.596;5.678;2023-06-10T03:06:56;13.55;;;10.32;;
80711;SDS011;70078;51.596;5.678;2023-06-10T03:09:22;11.32;;;10.15;;
80711;SDS011;70078;51.596;5.678;2023-06-10T03:11:47;11.70;;;10.25;;
80711;SDS011;70078;51.596;5.678;2023-06-10T03:14:13;13.85;;;10.50;;
80711;SDS011;70078;51.596;5.678;2023-06-10T03:16:38;13.52;;;10.35;;
80711;SDS011;70078;51.596;5.678;2023-06-10T03:19:07;11.80;;;10.27;;
80711;SDS011;70078;51.596;5.678;2023-06-10T03:21:33;12.20;;;9.57;;
80711;SDS011;70078;51.596;5.678;2023-06-10T03:23:59;11.23;;;10.02;;
80711;SDS011;70078;51.596;5.678;2023-06-10T03:26:25;12.23;;;10.00;;
80711;SDS011;70078;51.596;5.678;2023-06-10T03:28:52;11.32;;;10.15;;
80711;SDS011;70078;51.596;5.678;2023-06-10T03:31:17;11.27;;;9.93;;
80711;SDS011;70078;51.596;5.678;2023-06-10T03:33:43;14.32;;;9.98;;
80711;SDS011;70078;51.596;5.678;2023-06-10T03:36:08;12.57;;;9.70;;
80711;SDS011;70078;51.596;5.678;2023-06-10T03:38:34;12.60;;;10.25;;
80711;SDS011;70078;51.596;5.678;2023-06-10T03:41:00;14.20;;;11.05;;
80711;SDS011;70078;51.596;5.678;2023-06-10T03:43:26;12.20;;;9.75;;
80711;SDS011;70078;51.596;5.678;2023-06-10T03:45:52;12.88;;;10.05;;
80711;SDS011;70078;51.596;5.678;2023-06-10T03:48:18;13.75;;;10.93;;
80711;SDS011;70078;51.596;5.678;2023-06-10T03:50:43;12.15;;;10.23;;
80711;SDS011;70078;51.596;5.678;2023-06-10T03:53:08;13.63;;;10.15;;
80711;SDS011;70078;51.596;5.678;2023-06-10T03:55:34;14.23;;;11.25;;
80711;SDS011;70078;51.596;5.678;2023-06-10T03:57:59;12.80;;;11.35;;
80711;SDS011;70078;51.596;5.678;2023-06-10T04:00:25;13.57;;;11.52;;
80711;SDS011;70078;51.596;5.678;2023-06-10T04:02:50;13.80;;;10.85;;
80711;SDS011;70078;51.596;5.678;2023-06-10T04:05:17;17.23;;;11.15;;
80711;SDS011;70078;51.596;5.678;2023-06-10T04:07:46;14.20;;;11.85;;
80711;SDS011;70078;51.596;5.678;2023-06-10T04:10:13;15.85;;;12.35;;
80711;SDS011;70078;51.596;5.678;2023-06-10T04:12:39;12.82;;;11.25;;
80711;SDS011;70078;51.596;5.678;2023-06-10T04:15:05;13.60;;;10.93;;
80711;SDS011;70078;51.596;5.678;2023-06-10T04:17:30;14.23;;;10.48;;
80711;SDS011;70078;51.596;5.678;2023-06-10T04:19:56;14.48;;;12.98;;
80711;SDS011;70078;51.596;5.678;2023-06-10T04:22:22;15.85;;;10.98;;
80711;SDS011;70078;51.596;5.678;2023-06-10T04:24:48;13.25;;;10.27;;
80711;SDS011;70078;51.596;5.678;2023-06-10T04:27:13;14.63;;;10.80;;
80711;SDS011;70078;51.596;5.678;2023-06-10T04:29:39;14.20;;;10.63;;
80711;SDS011;70078;51.596;5.678;2023-06-10T04:32:07;15.60;;;10.50;;
80711;SDS011;70078;51.596;5.678;2023-06-10T04:34:33;11.48;;;9.80;;
80711;SDS011;70078;51.596;5.678;2023-06-10T04:36:58;12.75;;;10.48;;
80711;SDS011;70078;51.596;5.678;2023-06-10T04:39:24;13.02;;;10.57;;
80711;SDS011;70078;51.596;5.678;2023-06-10T04:41:49;11.98;;;9.98;;
80711;SDS011;70078;51.596;5.678;2023-06-10T04:44:14;12.13;;;10.52;;
80711;SDS011;70078;51.596;5.678;2023-06-10T04:46:39;13.15;;;10.57;;
80711;SDS011;70078;51.596;5.678;2023-06-10T04:49:05;12.82;;;9.52;;
80711;SDS011;70078;51.596;5.678;2023-06-10T04:51:30;11.65;;;10.10;;
80711;SDS011;70078;51.596;5.678;2023-06-10T04:53:57;11.52;;;9.55;;
80711;SDS011;70078;51.596;5.678;2023-06-10T04:56:22;11.63;;;9.10;;
80711;SDS011;70078;51.596;5.678;2023-06-10T04:58:47;11.75;;;8.85;;
80711;SDS011;70078;51.596;5.678;2023-06-10T05:01:13;12.65;;;9.43;;
80711;SDS011;70078;51.596;5.678;2023-06-10T05:03:38;14.88;;;9.18;;
80711;SDS011;70078;51.596;5.678;2023-06-10T05:06:03;11.30;;;9.35;;
80711;SDS011;70078;51.596;5.678;2023-06-10T05:08:29;11.32;;;9.20;;
80711;SDS011;70078;51.596;5.678;2023-06-10T05:10:54;13.02;;;9.05;;
80711;SDS011;70078;51.596;5.678;2023-06-10T05:13:20;10.98;;;8.75;;
80711;SDS011;70078;51.596;5.678;2023-06-10T05:15:45;11.55;;;9.75;;
80711;SDS011;70078;51.596;5.678;2023-06-10T05:18:11;11.57;;;8.88;;
80711;SDS011;70078;51.596;5.678;2023-06-10T05:20:39;15.93;;;8.95;;
80711;SDS011;70078;51.596;5.678;2023-06-10T05:23:04;13.07;;;9.65;;
80711;SDS011;70078;51.596;5.678;2023-06-10T05:25:30;11.35;;;8.93;;
80711;SDS011;70078;51.596;5.678;2023-06-10T05:27:56;11.60;;;9.00;;
80711;SDS011;70078;51.596;5.678;2023-06-10T05:30:22;12.23;;;9.45;;
80711;SDS011;70078;51.596;5.678;2023-06-10T05:32:49;13.02;;;8.85;;
80711;SDS011;70078;51.596;5.678;2023-06-10T05:35:16;11.63;;;7.70;;
80711;SDS011;70078;51.596;5.678;2023-06-10T05:37:41;11.70;;;8.82;;
80711;SDS011;70078;51.596;5.678;2023-06-10T05:40:07;10.52;;;8.48;;
80711;SDS011;70078;51.596;5.678;2023-06-10T05:42:33;12.52;;;8.38;;
80711;SDS011;70078;51.596;5.678;2023-06-10T05:44:58;11.70;;;8.15;;
80711;SDS011;70078;51.596;5.678;2023-06-10T05:47:23;14.40;;;8.98;;
80711;SDS011;70078;51.596;5.678;2023-06-10T05:49:49;11.32;;;7.38;;
80711;SDS011;70078;51.596;5.678;2023-06-10T05:52:16;13.68;;;8.48;;
80711;SDS011;70078;51.596;5.678;2023-06-10T05:54:42;12.02;;;7.78;;
80711;SDS011;70078;51.596;5.678;2023-06-10T05:57:07;13.60;;;7.55;;
80711;SDS011;70078;51.596;5.678;2023-06-10T05:59:33;8.80;;;7.00;;
80711;SDS011;70078;51.596;5.678;2023-06-10T06:01:58;9.07;;;6.75;;
80711;SDS011;70078;51.596;5.678;2023-06-10T06:04:23;10.45;;;6.95;;
80711;SDS011;70078;51.596;5.678;2023-06-10T06:06:49;10.20;;;7.13;;
80711;SDS011;70078;51.596;5.678;2023-06-10T06:09:14;10.95;;;7.45;;
80711;SDS011;70078;51.596;5.678;2023-06-10T06:11:40;13.32;;;6.78;;
80711;SDS011;70078;51.596;5.678;2023-06-10T06:14:06;8.98;;;7.20;;
80711;SDS011;70078;51.596;5.678;2023-06-10T06:16:31;10.10;;;7.30;;
80711;SDS011;70078;51.596;5.678;2023-06-10T06:18:57;9.77;;;7.45;;
80711;SDS011;70078;51.596;5.678;2023-06-10T06:21:22;11.88;;;7.18;;
80711;SDS011;70078;51.596;5.678;2023-06-10T06:23:48;12.77;;;7.70;;
80711;SDS011;70078;51.596;5.678;2023-06-10T06:26:13;10.60;;;7.40;;
80711;SDS011;70078;51.596;5.678;2023-06-10T06:28:38;11.50;;;7.15;;
80711;SDS011;70078;51.596;5.678;2023-06-10T06:31:04;10.93;;;6.82;;
80711;SDS011;70078;51.596;5.678;2023-06-10T06:33:29;10.43;;;7.35;;
80711;SDS011;70078;51.596;5.678;2023-06-10T06:35:55;11.10;;;7.15;;
80711;SDS011;70078;51.596;5.678;2023-06-10T06:38:20;8.75;;;6.75;;
80711;SDS011;70078;51.596;5.678;2023-06-10T06:40:45;9.82;;;7.00;;
80711;SDS011;70078;51.596;5.678;2023-06-10T06:43:11;13.68;;;6.70;;
80711;SDS011;70078;51.596;5.678;2023-06-10T06:45:36;10.02;;;7.22;;
80711;SDS011;70078;51.596;5.678;2023-06-10T06:48:01;9.38;;;6.63;;
80711;SDS011;70078;51.596;5.678;2023-06-10T06:50:27;8.82;;;7.40;;
80711;SDS011;70078;51.596;5.678;2023-06-10T06:52:53;10.48;;;7.05;;
80711;SDS011;70078;51.596;5.678;2023-06-10T06:55:18;9.45;;;6.32;;
80711;SDS011;70078;51.596;5.678;2023-06-10T06:57:43;10.40;;;7.15;;
80711;SDS011;70078;51.596;5.678;2023-06-10T07:00:09;7.97;;;6.50;;
80711;SDS011;70078;51.596;5.678;2023-06-10T07:02:35;11.60;;;7.40;;
80711;SDS011;70078;51.596;5.678;2023-06-10T07:05:00;10.95;;;6.85;;
80711;SDS011;70078;51.596;5.678;2023-06-10T07:07:26;8.35;;;6.88;;
80711;SDS011;70078;51.596;5.678;2023-06-10T07:09:52;9.90;;;6.47;;
80711;SDS011;70078;51.596;5.678;2023-06-10T07:12:17;8.15;;;6.15;;
80711;SDS011;70078;51.596;5.678;2023-06-10T07:14:43;12.05;;;6.93;;
80711;SDS011;70078;51.596;5.678;2023-06-10T07:17:09;9.27;;;6.85;;
80711;SDS011;70078;51.596;5.678;2023-06-10T07:19:34;10.02;;;6.43;;
80711;SDS011;70078;51.596;5.678;2023-06-10T07:22:00;13.48;;;7.03;;
80711;SDS011;70078;51.596;5.678;2023-06-10T07:24:25;8.75;;;7.07;;
80711;SDS011;70078;51.596;5.678;2023-06-10T07:26:50;11.07;;;6.70;;
80711;SDS011;70078;51.596;5.678;2023-06-10T07:29:16;9.50;;;6.00;;
80711;SDS011;70078;51.596;5.678;2023-06-10T07:31:41;9.38;;;7.05;;
80711;SDS011;70078;51.596;5.678;2023-06-10T07:34:07;9.00;;;6.95;;
80711;SDS011;70078;51.596;5.678;2023-06-10T07:36:32;10.85;;;6.35;;
80711;SDS011;70078;51.596;5.678;2023-06-10T07:38:58;8.20;;;6.22;;
80711;SDS011;70078;51.596;5.678;2023-06-10T07:41:23;8.68;;;6.25;;
80711;SDS011;70078;51.596;5.678;2023-06-10T07:43:50;9.15;;;6.05;;
80711;SDS011;70078;51.596;5.678;2023-06-10T07:46:19;10.25;;;7.07;;
80711;SDS011;70078;51.596;5.678;2023-06-10T07:48:46;8.55;;;5.68;;
80711;SDS011;70078;51.596;5.678;2023-06-10T07:51:11;7.68;;;6.18;;
80711;SDS011;70078;51.596;5.678;2023-06-10T07:53:36;9.35;;;6.68;;
80711;SDS011;70078;51.596;5.678;2023-06-10T07:56:02;7.82;;;4.70;;
80711;SDS011;70078;51.596;5.678;2023-06-10T07:58:27;11.38;;;6.47;;
80711;SDS011;70078;51.596;5.678;2023-06-10T08:00:53;10.45;;;6.18;;
80711;SDS011;70078;51.596;5.678;2023-06-10T08:03:19;7.78;;;6.05;;
80711;SDS011;70078;51.596;5.678;2023-06-10T08:05:44;11.73;;;6.07;;
80711;SDS011;70078;51.596;5.678;2023-06-10T08:08:09;8.23;;;5.55;;
80711;SDS011;70078;51.596;5.678;2023-06-10T08:10:35;8.02;;;5.80;;
80711;SDS011;70078;51.596;5.678;2023-06-10T08:13:00;9.70;;;6.00;;
80711;SDS011;70078;51.596;5.678;2023-06-10T08:15:25;8.05;;;5.88;;
80711;SDS011;70078;51.596;5.678;2023-06-10T08:17:51;7.85;;;5.38;;
80711;SDS011;70078;51.596;5.678;2023-06-10T08:20:17;7.47;;;5.65;;
80711;SDS011;70078;51.596;5.678;2023-06-10T08:22:43;7.90;;;5.88;;
80711;SDS011;70078;51.596;5.678;2023-06-10T08:25:08;9.32;;;5.43;;
80711;SDS011;70078;51.596;5.678;2023-06-10T08:27:33;6.90;;;5.95;;
80711;SDS011;70078;51.596;5.678;2023-06-10T08:29:59;7.15;;;6.10;;
80711;SDS011;70078;51.596;5.678;2023-06-10T08:32:25;7.72;;;5.20;;
80711;SDS011;70078;51.596;5.678;2023-06-10T08:34:51;8.05;;;5.38;;
80711;SDS011;70078;51.596;5.678;2023-06-10T08:37:16;9.23;;;5.63;;
80711;SDS011;70078;51.596;5.678;2023-06-10T08:39:41;7.30;;;5.78;;
80711;SDS011;70078;51.596;5.678;2023-06-10T08:44:55;7.88;;;5.28;;
80711;SDS011;70078;51.596;5.678;2023-06-10T08:47:22;9.98;;;5.45;;
80711;SDS011;70078;51.596;5.678;2023-06-10T08:49:48;10.45;;;7.43;;
80711;SDS011;70078;51.596;5.678;2023-06-10T08:52:14;5.95;;;4.63;;
80711;SDS011;70078;51.596;5.678;2023-06-10T08:54:52;9.80;;;5.80;;
80711;SDS011;70078;51.596;5.678;2023-06-10T08:57:22;7.13;;;5.10;;
80711;SDS011;70078;51.596;5.678;2023-06-10T08:59:48;10.32;;;5.68;;
80711;SDS011;70078;51.596;5.678;2023-06-10T09:02:14;7.00;;;5.38;;
80711;SDS011;70078;51.596;5.678;2023-06-10T09:04:42;7.38;;;6.03;;
80711;SDS011;70078;51.596;5.678;2023-06-10T09:07:08;8.40;;;6.18;;
80711;SDS011;70078;51.596;5.678;2023-06-10T09:09:35;7.28;;;5.47;;
80711;SDS011;70078;51.596;5.678;2023-06-10T09:12:01;8.88;;;5.57;;
80711;SDS011;70078;51.596;5.678;2023-06-10T09:14:26;12.30;;;5.88;;
80711;SDS011;70078;51.596;5.678;2023-06-10T09:16:52;9.00;;;5.97;;
80711;SDS011;70078;51.596;5.678;2023-06-10T09:19:21;6.75;;;5.72;;
80711;SDS011;70078;51.596;5.678;2023-06-10T09:21:48;9.25;;;5.43;;
80711;SDS011;70078;51.596;5.678;2023-06-10T09:24:13;9.85;;;5.93;;
80711;SDS011;70078;51.596;5.678;2023-06-10T09:26:39;10.82;;;6.13;;
80711;SDS011;70078;51.596;5.678;2023-06-10T09:29:04;7.72;;;6.28;;
80711;SDS011;70078;51.596;5.678;2023-06-10T09:31:31;9.77;;;6.15;;
80711;SDS011;70078;51.596;5.678;2023-06-10T09:34:09;9.00;;;5.68;;
80711;SDS011;70078;51.596;5.678;2023-06-10T09:36:36;8.57;;;5.95;;
80711;SDS011;70078;51.596;5.678;2023-06-10T09:39:03;8.77;;;6.18;;
80711;SDS011;70078;51.596;5.678;2023-06-10T09:41:32;6.03;;;4.72;;
80711;SDS011;70078;51.596;5.678;2023-06-10T09:43:59;7.55;;;5.97;;
80711;SDS011;70078;51.596;5.678;2023-06-10T09:46:25;9.52;;;5.97;;
80711;SDS011;70078;51.596;5.678;2023-06-10T09:48:57;11.15;;;5.78;;
80711;SDS011;70078;51.596;5.678;2023-06-10T09:51:22;6.85;;;5.55;;
80711;SDS011;70078;51.596;5.678;2023-06-10T09:53:51;9.70;;;6.03;;
80711;SDS011;70078;51.596;5.678;2023-06-10T09:56:17;10.63;;;6.47;;
80711;SDS011;70078;51.596;5.678;2023-06-10T09:58:42;6.55;;;5.30;;
80711;SDS011;70078;51.596;5.678;2023-06-10T10:01:12;9.40;;;6.20;;
80711;SDS011;70078;51.596;5.678;2023-06-10T10:03:49;7.13;;;6.40;;
80711;SDS011;70078;51.596;5.678;2023-06-10T10:06:16;8.82;;;6.43;;
80711;SDS011;70078;51.596;5.678;2023-06-10T10:08:43;8.63;;;6.22;;
80711;SDS011;70078;51.596;5.678;2023-06-10T10:11:10;7.72;;;5.50;;
80711;SDS011;70078;51.596;5.678;2023-06-10T10:13:35;7.07;;;5.78;;
80711;SDS011;70078;51.596;5.678;2023-06-10T10:16:12;6.90;;;5.68;;
80711;SDS011;70078;51.596;5.678;2023-06-10T10:18:43;8.13;;;6.43;;
80711;SDS011;70078;51.596;5.678;2023-06-10T10:21:14;8.10;;;5.80;;
80711;SDS011;70078;51.596;5.678;2023-06-10T10:23:46;8.40;;;7.07;;
80711;SDS011;70078;51.596;5.678;2023-06-10T10:26:18;11.05;;;6.57;;
80711;SDS011;70078;51.596;5.678;2023-06-10T10:28:48;7.57;;;6.47;;
80711;SDS011;70078;51.596;5.678;2023-06-10T10:31:23;9.50;;;6.00;;
80711;SDS011;70078;51.596;5.678;2023-06-10T10:33:54;7.82;;;5.85;;
80711;SDS011;70078;51.596;5.678;2023-06-10T10:36:22;7.40;;;6.20;;
80711;SDS011;70078;51.596;5.678;2023-06-10T10:38:48;7.07;;;6.28;;
80711;SDS011;70078;51.596;5.678;2023-06-10T10:41:16;8.75;;;6.13;;
80711;SDS011;70078;51.596;5.678;2023-06-10T10:43:43;6.75;;;6.00;;
80711;SDS011;70078;51.596;5.678;2023-06-10T10:46:13;8.13;;;6.43;;
80711;SDS011;70078;51.596;5.678;2023-06-10T10:48:40;8.77;;;6.63;;
80711;SDS011;70078;51.596;5.678;2023-06-10T10:51:07;7.82;;;6.60;;
80711;SDS011;70078;51.596;5.678;2023-06-10T10:53:33;9.30;;;6.25;;
80711;SDS011;70078;51.596;5.678;2023-06-10T10:55:59;7.85;;;6.13;;
80711;SDS011;70078;51.596;5.678;2023-06-10T10:58:38;8.25;;;5.93;;
80711;SDS011;70078;51.596;5.678;2023-06-10T11:01:10;7.00;;;6.30;;
80711;SDS011;70078;51.596;5.678;2023-06-10T11:03:43;9.15;;;6.05;;
80711;SDS011;70078;51.596;5.678;2023-06-10T11:06:13;10.63;;;7.55;;
80711;SDS011;70078;51.596;5.678;2023-06-10T11:11:22;6.88;;;6.10;;
80711;SDS011;70078;51.596;5.678;2023-06-10T11:13:58;8.48;;;6.25;;
80711;SDS011;70078;51.596;5.678;2023-06-10T11:16:27;9.98;;;6.10;;
80711;SDS011;70078;51.596;5.678;2023-06-10T11:18:54;7.70;;;6.10;;
80711;SDS011;70078;51.596;5.678;2023-06-10T11:21:20;8.57;;;6.38;;
80711;SDS011;70078;51.596;5.678;2023-06-10T11:23:48;9.80;;;6.03;;
80711;SDS011;70078;51.596;5.678;2023-06-10T11:31:23;7.93;;;5.85;;
80711;SDS011;70078;51.596;5.678;2023-06-10T11:33:53;7.10;;;5.45;;
80711;SDS011;70078;51.596;5.678;2023-06-10T11:36:19;8.00;;;5.80;;
80711;SDS011;70078;51.596;5.678;2023-06-10T11:38:45;7.82;;;5.50;;
80711;SDS011;70078;51.596;5.678;2023-06-10T11:41:11;9.07;;;5.88;;
80711;SDS011;70078;51.596;5.678;2023-06-10T11:43:37;7.40;;;5.78;;
80711;SDS011;70078;51.596;5.678;2023-06-10T11:46:07;8.52;;;5.90;;
80711;SDS011;70078;51.596;5.678;2023-06-10T11:48:33;9.50;;;6.18;;
80711;SDS011;70078;51.596;5.678;2023-06-10T11:50:59;7.50;;;5.43;;
80711;SDS011;70078;51.596;5.678;2023-06-10T11:53:24;8.95;;;6.45;;
80711;SDS011;70078;51.596;5.678;2023-06-10T11:55:50;11.77;;;5.78;;
80711;SDS011;70078;51.596;5.678;2023-06-10T11:58:20;7.88;;;6.00;;
80711;SDS011;70078;51.596;5.678;2023-06-10T12:00:47;7.32;;;6.63;;
80711;SDS011;70078;51.596;5.678;2023-06-10T12:03:18;6.78;;;5.97;;
80711;SDS011;70078;51.596;5.678;2023-06-10T12:05:59;6.72;;;6.03;;
80711;SDS011;70078;51.596;5.678;2023-06-10T12:08:27;7.63;;;5.68;;
80711;SDS011;70078;51.596;5.678;2023-06-10T12:10:53;9.07;;;6.15;;
80711;SDS011;70078;51.596;5.678;2023-06-10T12:13:19;7.95;;;5.82;;
80711;SDS011;70078;51.596;5.678;2023-06-10T12:15:44;5.78;;;5.13;;
80711;SDS011;70078;51.596;5.678;2023-06-10T12:18:19;8.90;;;5.93;;
80711;SDS011;70078;51.596;5.678;2023-06-10T12:20:46;7.60;;;6.03;;
80711;SDS011;70078;51.596;5.678;2023-06-10T12:23:13;7.45;;;6.07;;
80711;SDS011;70078;51.596;5.678;2023-06-10T12:25:39;7.75;;;5.65;;
80711;SDS011;70078;51.596;5.678;2023-06-10T12:28:16;8.65;;;6.30;;
80711;SDS011;70078;51.596;5.678;2023-06-10T12:30:42;5.47;;;4.72;;
80711;SDS011;70078;51.596;5.678;2023-06-10T12:33:15;7.07;;;6.07;;
80711;SDS011;70078;51.596;5.678;2023-06-10T12:35:50;7.40;;;6.32;;
80711;SDS011;70078;51.596;5.678;2023-06-10T12:38:22;8.48;;;6.00;;
80711;SDS011;70078;51.596;5.678;2023-06-10T12:40:53;8.95;;;6.78;;
80711;SDS011;70078;51.596;5.678;2023-06-10T12:43:22;7.25;;;5.75;;
80711;SDS011;70078;51.596;5.678;2023-06-10T12:45:49;7.47;;;5.53;;
80711;SDS011;70078;51.596;5.678;2023-06-10T12:48:18;6.35;;;5.75;;
80711;SDS011;70078;51.596;5.678;2023-06-10T12:50:51;8.55;;;5.90;;
80711;SDS011;70078;51.596;5.678;2023-06-10T12:53:19;8.43;;;5.85;;
80711;SDS011;70078;51.596;5.678;2023-06-10T12:55:45;8.75;;;5.85;;
80711;SDS011;70078;51.596;5.678;2023-06-10T12:58:11;8.30;;;6.43;;
80711;SDS011;70078;51.596;5.678;2023-06-10T13:00:37;7.30;;;5.28;;
80711;SDS011;70078;51.596;5.678;2023-06-10T13:03:03;6.75;;;6.03;;
80711;SDS011;70078;51.596;5.678;2023-06-10T13:05:30;6.85;;;6.15;;
80711;SDS011;70078;51.596;5.678;2023-06-10T13:07:57;6.95;;;6.25;;
80711;SDS011;70078;51.596;5.678;2023-06-10T13:10:23;7.25;;;5.82;;
80711;SDS011;70078;51.596;5.678;2023-06-10T13:12:49;6.85;;;6.20;;
80711;SDS011;70078;51.596;5.678;2023-06-10T13:15:15;6.15;;;5.38;;
80711;SDS011;70078;51.596;5.678;2023-06-10T13:17:51;8.18;;;6.22;;
80711;SDS011;70078;51.596;5.678;2023-06-10T13:20:16;6.35;;;5.75;;
80711;SDS011;70078;51.596;5.678;2023-06-10T13:22:42;6.70;;;5.63;;
80711;SDS011;70078;51.596;5.678;2023-06-10T13:25:07;7.70;;;5.85;;
80711;SDS011;70078;51.596;5.678;2023-06-10T13:27:34;8.93;;;5.68;;
80711;SDS011;70078;51.596;5.678;2023-06-10T13:30:03;6.38;;;5.75;;
80711;SDS011;70078;51.596;5.678;2023-06-10T13:32:29;7.13;;;5.82;;
80711;SDS011;70078;51.596;5.678;2023-06-10T13:34:54;8.45;;;5.78;;
80711;SDS011;70078;51.596;5.678;2023-06-10T13:37:19;7.32;;;6.20;;
80711;SDS011;70078;51.596;5.678;2023-06-10T13:39:45;7.35;;;6.05;;
80711;SDS011;70078;51.596;5.678;2023-06-10T13:42:16;6.90;;;6.13;;
80711;SDS011;70078;51.596;5.678;2023-06-10T13:44:45;7.10;;;5.63;;
80711;SDS011;70078;51.596;5.678;2023-06-10T13:47:12;6.82;;;5.95;;
80711;SDS011;70078;51.596;5.678;2023-06-10T13:49:38;7.30;;;5.85;;
80711;SDS011;70078;51.596;5.678;2023-06-10T13:52:03;6.63;;;5.93;;
80711;SDS011;70078;51.596;5.678;2023-06-10T13:54:29;6.72;;;5.43;;
80711;SDS011;70078;51.596;5.678;2023-06-10T13:56:54;6.90;;;5.57;;
80711;SDS011;70078;51.596;5.678;2023-06-10T13:59:20;8.18;;;6.20;;
80711;SDS011;70078;51.596;5.678;2023-06-10T14:01:46;6.93;;;6.00;;
80711;SDS011;70078;51.596;5.678;2023-06-10T14:04:12;7.70;;;6.30;;
80711;SDS011;70078;51.596;5.678;2023-06-10T14:06:37;6.85;;;6.15;;
80711;SDS011;70078;51.596;5.678;2023-06-10T14:09:03;8.05;;;6.00;;
80711;SDS011;70078;51.596;5.678;2023-06-10T14:11:28;7.55;;;6.22;;
80711;SDS011;70078;51.596;5.678;2023-06-10T14:13:53;6.47;;;5.40;;
80711;SDS011;70078;51.596;5.678;2023-06-10T14:16:21;7.07;;;5.93;;
80711;SDS011;70078;51.596;5.678;2023-06-10T14:18:46;6.85;;;5.90;;
80711;SDS011;70078;51.596;5.678;2023-06-10T14:21:12;6.55;;;5.75;;
80711;SDS011;70078;51.596;5.678;2023-06-10T14:23:37;7.72;;;5.57;;
80711;SDS011;70078;51.596;5.678;2023-06-10T14:26:02;9.38;;;6.10;;
80711;SDS011;70078;51.596;5.678;2023-06-10T14:28:28;8.30;;;6.05;;
80711;SDS011;70078;51.596;5.678;2023-06-10T14:30:54;8.13;;;6.25;;
80711;SDS011;70078;51.596;5.678;2023-06-10T14:33:19;7.30;;;5.80;;
80711;SDS011;70078;51.596;5.678;2023-06-10T14:35:45;9.90;;;5.57;;
80711;SDS011;70078;51.596;5.678;2023-06-10T14:38:10;7.97;;;5.35;;
80711;SDS011;70078;51.596;5.678;2023-06-10T14:40:35;7.38;;;5.75;;
80711;SDS011;70078;51.596;5.678;2023-06-10T14:43:01;7.50;;;5.90;;
80711;SDS011;70078;51.596;5.678;2023-06-10T14:45:29;8.23;;;5.97;;
80711;SDS011;70078;51.596;5.678;2023-06-10T14:47:54;9.75;;;5.80;;